createdAt,value
2019-01-23T00:00:53.352Z,6.15
2019-01-23T00:03:46.152Z,5.47
2019-01-23T00:06:38.952Z,6.87
2019-01-23T00:09:31.750Z,4.60
2019-01-23T00:12:24.552Z,5.62
2019-01-23T00:15:18.382Z,5.10
2019-01-23T00:18:11.433Z,5.03
2019-01-23T00:21:04.233Z,5.12
2019-01-23T00:24:04.458Z,5.78
2019-01-23T00:26:51.753Z,5.42
2019-01-23T00:29:44.423Z,4.83
2019-01-23T00:32:38.760Z,5.47
2019-01-23T00:35:31.557Z,4.15
2019-01-23T00:38:24.360Z,4.22
2019-01-23T00:41:17.417Z,4.90
2019-01-23T00:44:11.497Z,4.35
2019-01-23T00:47:04.555Z,3.77
2019-01-23T00:49:57.606Z,7.58
2019-01-23T00:52:50.406Z,3.52
2019-01-23T00:55:43.216Z,4.65
2019-01-23T00:58:36.271Z,4.72
2019-01-23T01:01:29.323Z,6.40
2019-01-23T01:04:19.559Z,4.03
2019-01-23T01:07:12.618Z,4.28
2019-01-23T01:10:05.418Z,3.50
2019-01-23T01:12:58.215Z,3.42
2019-01-23T01:15:51.270Z,3.92
2019-01-23T01:18:44.325Z,3.50
2019-01-23T01:21:37.135Z,3.05
2019-01-23T01:24:30.187Z,3.02
2019-01-23T01:27:22.986Z,2.85
2019-01-23T01:30:11.946Z,2.67
2019-01-23T01:33:01.422Z,2.70
2019-01-23T01:35:54.215Z,2.95
2019-01-23T01:38:47.273Z,2.12
2019-01-23T01:41:40.070Z,2.58
2019-01-23T01:44:32.874Z,2.62
2019-01-23T01:47:26.694Z,2.10
2019-01-23T01:50:19.754Z,2.47
2019-01-23T01:53:12.551Z,2.05
2019-01-23T01:56:05.607Z,2.27
2019-01-23T01:59:02.764Z,2.10
2019-01-23T02:01:51.208Z,1.80
2019-01-23T02:04:45.030Z,1.70
2019-01-23T02:07:38.864Z,1.67
2019-01-23T02:10:32.679Z,2.00
2019-01-23T02:13:26.764Z,1.50
2019-01-23T02:16:19.817Z,1.75
2019-01-23T02:19:12.871Z,1.60
2019-01-23T02:22:05.670Z,1.70
2019-01-23T02:24:59.496Z,1.87
2019-01-23T02:27:52.806Z,1.72
2019-01-23T02:30:46.382Z,1.80
2019-01-23T02:33:39.431Z,1.40
2019-01-23T02:36:32.232Z,1.65
2019-01-23T02:39:25.285Z,1.65
2019-01-23T02:42:18.088Z,1.70
2019-01-23T02:45:11.145Z,1.60
2019-01-23T02:48:05.833Z,1.40
2019-01-23T02:50:57.256Z,1.42
2019-01-23T02:53:50.311Z,1.42
2019-01-23T02:56:43.109Z,1.47
2019-01-23T02:59:36.423Z,1.47
2019-01-23T03:02:29.480Z,1.80
2019-01-23T03:05:18.639Z,1.50
2019-01-23T03:08:11.495Z,1.80
2019-01-23T03:11:01.480Z,1.70
2019-01-23T03:13:54.534Z,1.60
2019-01-23T03:16:47.595Z,1.30
2019-01-23T03:19:40.648Z,1.42
2019-01-23T03:22:33.445Z,1.70
2019-01-23T03:25:22.410Z,1.75
2019-01-23T03:28:18.537Z,1.70
2019-01-23T03:31:07.795Z,1.90
2019-01-23T03:34:00.809Z,1.60
2019-01-23T03:36:53.867Z,1.50
2019-01-23T03:39:46.920Z,1.60
2019-01-23T03:42:39.979Z,1.60
2019-01-23T03:45:29.451Z,1.75
2019-01-23T03:48:22.246Z,1.60
2019-01-23T03:51:15.303Z,1.65
2019-01-23T03:54:08.106Z,1.40
2019-01-23T03:57:01.159Z,1.92
2019-01-23T03:59:53.962Z,1.70
2019-01-23T04:02:46.759Z,1.65
2019-01-23T04:05:39.559Z,1.25
2019-01-23T04:08:32.622Z,2.05
2019-01-23T04:11:21.705Z,1.67
2019-01-23T04:14:14.632Z,2.10
2019-01-23T04:17:07.430Z,1.65
2019-01-23T04:20:01.513Z,1.57
2019-01-23T04:22:54.319Z,1.45
2019-01-23T04:25:48.135Z,1.60
2019-01-23T04:28:36.520Z,1.92
2019-01-23T04:31:29.384Z,2.10
2019-01-23T04:34:22.185Z,1.67
2019-01-23T04:37:14.982Z,1.50
2019-01-23T04:40:09.575Z,1.80
2019-01-23T04:43:03.400Z,1.53
2019-01-23T04:45:56.203Z,1.52
2019-01-23T04:48:49.000Z,1.77
2019-01-23T04:51:54.095Z,2.00
2019-01-23T04:54:47.145Z,2.00
2019-01-23T04:57:39.945Z,1.45
2019-01-23T05:00:34.535Z,1.40
2019-01-23T05:03:27.850Z,1.30
2019-01-23T05:06:20.908Z,1.62
2019-01-23T05:09:13.962Z,1.35
2019-01-23T05:12:06.759Z,1.50
2019-01-23T05:15:00.585Z,1.52
2019-01-23T05:17:53.639Z,1.82
2019-01-23T05:20:46.438Z,1.40
2019-01-23T05:23:39.243Z,1.37
2019-01-23T05:26:32.043Z,1.70
2019-01-23T05:29:25.607Z,1.40
2019-01-23T05:32:18.412Z,1.98
2019-01-23T05:35:11.462Z,1.47
2019-01-23T05:38:04.263Z,1.32
2019-01-23T05:40:57.320Z,1.40
2019-01-23T05:43:50.123Z,1.40
2019-01-23T05:46:42.921Z,1.42
2019-01-23T05:49:35.978Z,2.62
2019-01-23T05:52:28.791Z,2.08
2019-01-23T05:55:40.007Z,1.80
2019-01-23T05:58:33.065Z,2.00
2019-01-23T06:01:26.119Z,1.67
2019-01-23T06:04:19.180Z,1.82
2019-01-23T06:07:11.981Z,2.17
2019-01-23T06:10:04.785Z,1.47
2019-01-23T06:12:57.574Z,1.62
2019-01-23T06:15:50.633Z,1.35
2019-01-23T06:18:43.692Z,1.60
2019-01-23T06:21:36.491Z,1.87
2019-01-23T06:24:29.296Z,1.80
2019-01-23T06:27:18.476Z,1.60
2019-01-23T06:30:11.304Z,1.77
2019-01-23T06:33:04.369Z,1.72
2019-01-23T06:35:57.414Z,2.17
2019-01-23T06:38:50.474Z,1.57
2019-01-23T06:41:43.273Z,2.10
2019-01-23T06:44:30.665Z,2.85
2019-01-23T06:47:23.496Z,1.65
2019-01-23T06:50:16.807Z,1.82
2019-01-23T06:53:14.023Z,2.10
2019-01-23T06:56:02.407Z,2.35
2019-01-23T06:58:55.469Z,1.87
2019-01-23T07:01:48.524Z,2.37
2019-01-23T07:04:43.629Z,1.82
2019-01-23T07:07:40.264Z,2.62
2019-01-23T07:10:34.090Z,2.05
2019-01-23T07:13:27.147Z,1.70
2019-01-23T07:16:19.942Z,2.12
2019-01-23T07:19:13.000Z,2.02
2019-01-23T07:22:05.801Z,1.57
2019-01-23T07:24:58.856Z,2.77
2019-01-23T07:27:51.911Z,3.08
2019-01-23T07:31:00.589Z,2.30
2019-01-23T07:33:54.669Z,2.45
2019-01-23T07:36:47.718Z,1.95
2019-01-23T07:39:40.774Z,2.40
2019-01-23T07:42:33.831Z,1.98
2019-01-23T07:45:24.328Z,2.40
2019-01-23T07:48:17.383Z,2.33
2019-01-23T07:51:11.464Z,1.98
2019-01-23T07:54:04.518Z,3.02
2019-01-23T07:56:57.835Z,1.62
2019-01-23T07:59:51.143Z,2.55
2019-01-23T08:02:44.457Z,1.67
2019-01-23T08:05:34.184Z,1.75
2019-01-23T08:08:27.238Z,2.70
2019-01-23T08:11:44.872Z,2.92
2019-01-23T08:14:37.674Z,2.10
2019-01-23T08:17:32.978Z,2.42
2019-01-23T08:20:19.688Z,3.10
2019-01-23T08:23:12.496Z,3.22
2019-01-23T08:26:05.543Z,3.87
2019-01-23T08:28:58.600Z,1.60
2019-01-23T08:31:52.169Z,2.58
2019-01-23T08:34:45.745Z,2.60
2019-01-23T08:37:39.561Z,2.55
2019-01-23T08:40:33.385Z,3.65
2019-01-23T08:43:26.696Z,2.70
2019-01-23T08:46:27.177Z,3.33
2019-01-23T08:49:20.231Z,2.60
2019-01-23T08:52:13.548Z,2.85
2019-01-23T08:55:08.389Z,2.30
2019-01-23T08:58:01.192Z,4.08
2019-01-23T09:00:53.990Z,2.60
2019-01-23T09:03:46.792Z,2.87
2019-01-23T09:06:39.600Z,3.47
2019-01-23T09:09:32.647Z,3.12
2019-01-23T09:12:25.448Z,4.12
2019-01-23T09:15:18.247Z,7.92
2019-01-23T09:18:08.746Z,4.33
2019-01-23T09:21:01.581Z,7.33
2019-01-23T09:23:54.344Z,3.27
2019-01-23T09:26:47.146Z,6.72
2019-01-23T09:29:39.953Z,4.42
2019-01-23T09:32:44.287Z,3.80
2019-01-23T09:36:03.431Z,3.77
2019-01-23T09:39:06.472Z,4.10
2019-01-23T09:42:13.863Z,4.58
2019-01-23T09:45:30.213Z,3.60
2019-01-23T09:48:31.974Z,3.65
2019-01-23T09:51:39.117Z,4.08
2019-01-23T09:54:34.474Z,4.67
2019-01-23T09:57:27.271Z,3.35
2019-01-23T10:00:20.328Z,4.42
2019-01-23T10:03:13.128Z,4.08
2019-01-23T10:06:05.928Z,4.60
2019-01-23T10:08:58.984Z,3.75
2019-01-23T10:11:54.856Z,3.05
2019-01-23T10:14:47.914Z,6.47
2019-01-23T10:17:37.517Z,3.80
2019-01-23T10:20:30.439Z,3.60
2019-01-23T10:23:23.239Z,4.08
2019-01-23T10:26:16.295Z,4.62
2019-01-23T10:29:10.119Z,7.92
2019-01-23T10:32:03.184Z,4.80
2019-01-23T10:34:55.978Z,5.62
2019-01-23T10:37:49.286Z,5.08
2019-01-23T10:40:42.342Z,3.77
2019-01-23T10:43:35.151Z,3.15
2019-01-23T10:46:28.212Z,7.33
2019-01-23T10:49:21.257Z,5.78
2019-01-23T10:52:14.056Z,4.03
2019-01-23T10:55:07.112Z,4.60
2019-01-23T10:58:00.167Z,4.60
2019-01-23T11:00:49.447Z,7.15
2019-01-23T11:03:42.183Z,4.70
2019-01-23T11:06:31.142Z,2.87
2019-01-23T11:09:24.537Z,4.55
2019-01-23T11:12:17.511Z,3.58
2019-01-23T11:15:06.470Z,4.20
2019-01-23T11:17:59.527Z,4.95
2019-01-23T11:20:52.585Z,3.50
2019-01-23T11:23:41.799Z,4.55
2019-01-23T11:26:34.608Z,4.58
2019-01-23T11:29:28.428Z,4.78
2019-01-23T11:32:21.487Z,4.67
2019-01-23T11:35:14.282Z,6.33
2019-01-23T11:38:07.592Z,4.60
2019-01-23T11:41:00.653Z,4.97
2019-01-23T11:43:53.704Z,4.55
2019-01-23T11:46:41.323Z,5.45
2019-01-23T11:49:34.184Z,6.05
2019-01-23T11:52:27.751Z,5.00
2019-01-23T11:55:21.065Z,4.47
2019-01-23T11:58:10.539Z,4.20
2019-01-23T12:01:04.620Z,3.80
2019-01-23T12:03:59.219Z,5.85
2019-01-23T12:06:52.265Z,4.57
2019-01-23T12:09:45.580Z,3.70
2019-01-23T12:12:39.657Z,3.02
2019-01-23T12:15:29.639Z,4.12
2019-01-23T12:18:22.709Z,5.00
2019-01-23T12:21:15.758Z,5.37
2019-01-23T12:24:09.069Z,4.12
2019-01-23T12:27:01.862Z,5.50
2019-01-23T12:29:54.664Z,4.35
2019-01-23T12:32:47.724Z,5.40
2019-01-23T12:35:40.775Z,4.60
2019-01-23T12:38:33.578Z,4.37
2019-01-23T12:41:26.631Z,3.55
2019-01-23T12:44:19.431Z,2.90
2019-01-23T12:47:12.488Z,3.45
2019-01-23T12:50:05.288Z,3.67
2019-01-23T12:52:58.347Z,4.35
2019-01-23T12:55:51.142Z,3.50
2019-01-23T12:58:43.945Z,3.70
2019-01-23T13:01:41.950Z,4.15
2019-01-23T13:04:29.549Z,5.12
2019-01-23T13:07:28.511Z,3.27
2019-01-23T13:10:21.800Z,4.90
2019-01-23T13:13:14.860Z,3.50
2019-01-23T13:16:07.656Z,4.10
2019-01-23T13:19:01.316Z,3.70
2019-01-23T13:21:54.792Z,3.47
2019-01-23T13:24:47.590Z,5.08
2019-01-23T13:27:40.650Z,4.08
2019-01-23T13:30:34.742Z,3.50
2019-01-23T13:33:27.782Z,2.92
2019-01-23T13:36:20.839Z,4.60
2019-01-23T13:39:09.800Z,5.15
2019-01-23T13:42:02.863Z,4.90
2019-01-23T13:44:55.909Z,3.80
2019-01-23T13:47:48.966Z,4.75
2019-01-23T13:50:41.771Z,7.20
2019-01-23T13:53:34.824Z,4.83
2019-01-23T13:56:27.625Z,5.17
2019-01-23T13:59:21.707Z,6.05
2019-01-23T14:02:14.535Z,6.22
2019-01-23T14:05:07.564Z,6.45
2019-01-23T14:08:09.064Z,5.30
2019-01-23T14:11:02.377Z,4.70
2019-01-23T14:13:51.599Z,5.92
2019-01-23T14:16:45.717Z,6.30
2019-01-23T14:19:38.749Z,4.37
2019-01-23T14:22:31.528Z,6.47
2019-01-23T14:25:24.847Z,6.55
2019-01-23T14:28:17.905Z,6.53
2019-01-23T14:31:10.696Z,7.75
2019-01-23T14:34:04.011Z,6.60
2019-01-23T14:36:57.832Z,7.25
2019-01-23T14:39:50.635Z,3.17
2019-01-23T14:42:43.690Z,7.08
2019-01-23T14:45:38.536Z,6.67
2019-01-23T14:48:32.364Z,4.78
2019-01-23T14:51:32.840Z,6.80
2019-01-23T14:54:26.670Z,7.90
2019-01-23T14:57:19.721Z,7.08
2019-01-23T15:00:12.526Z,6.55
2019-01-23T15:03:01.737Z,6.22
2019-01-23T15:05:55.818Z,3.67
2019-01-23T15:08:49.134Z,5.62
2019-01-23T15:11:42.185Z,8.70
2019-01-23T15:14:35.497Z,6.42
2019-01-23T15:17:28.556Z,4.70
2019-01-23T15:20:18.057Z,5.47
2019-01-23T15:23:11.337Z,8.48
2019-01-23T15:26:05.167Z,4.72
2019-01-23T15:28:57.962Z,6.37
2019-01-23T15:31:52.047Z,7.53
2019-01-23T15:34:44.840Z,7.10
2019-01-23T15:37:38.154Z,6.37
2019-01-23T15:40:33.012Z,5.72
2019-01-23T15:43:21.960Z,7.37
2019-01-23T15:46:15.021Z,5.53
2019-01-23T15:49:08.077Z,6.60
2019-01-23T15:52:00.886Z,6.90
2019-01-23T15:54:53.929Z,5.50
2019-01-23T15:57:47.241Z,6.30
2019-01-23T16:00:41.591Z,5.55
2019-01-23T16:03:31.050Z,8.85
2019-01-23T16:06:20.265Z,8.55
2019-01-23T16:09:13.068Z,3.62
2019-01-23T16:12:06.120Z,6.55
2019-01-23T16:14:55.412Z,7.37
2019-01-23T16:17:48.136Z,7.22
2019-01-23T16:20:40.937Z,6.92
2019-01-23T16:23:34.248Z,5.08
2019-01-23T16:26:27.307Z,7.00
2019-01-23T16:29:20.106Z,8.63
2019-01-23T16:32:14.237Z,5.20
2019-01-23T16:35:15.691Z,8.75
2019-01-23T16:39:04.808Z,8.85
2019-01-23T16:41:57.609Z,7.10
2019-01-23T16:44:51.942Z,2.12
2019-01-23T16:47:45.734Z,6.87
2019-01-23T16:50:35.242Z,10.25
2019-01-23T16:53:37.255Z,7.45
2019-01-23T16:56:30.316Z,6.92
2019-01-23T16:59:19.527Z,9.48
2019-01-23T17:02:13.360Z,7.62
2019-01-23T17:04:58.731Z,9.88
2019-01-23T17:08:03.305Z,8.55
2019-01-23T17:10:52.520Z,7.90
2019-01-23T17:13:45.576Z,8.50
2019-01-23T17:16:38.384Z,8.63
2019-01-23T17:19:31.945Z,9.08
2019-01-23T17:22:21.804Z,7.60
2019-01-23T17:25:16.012Z,8.83
2019-01-23T17:28:08.809Z,9.65
2019-01-23T17:31:01.607Z,8.58
2019-01-23T17:33:50.315Z,5.78
2019-01-23T17:36:43.371Z,9.60
2019-01-23T17:39:39.242Z,8.00
2019-01-23T17:42:32.559Z,18.82
2019-01-23T17:45:26.894Z,7.10
2019-01-23T17:48:19.945Z,8.80
2019-01-23T17:51:14.033Z,8.43
2019-01-23T17:54:07.337Z,9.55
2019-01-23T17:56:57.834Z,10.10
2019-01-23T17:59:44.749Z,9.93
2019-01-23T18:02:38.825Z,8.70
2019-01-23T18:05:28.038Z,4.53
2019-01-23T18:08:17.359Z,9.78
2019-01-23T18:11:10.322Z,12.45
2019-01-23T18:14:03.370Z,6.45
2019-01-23T18:16:56.681Z,8.90
2019-01-23T18:19:50.030Z,9.67
2019-01-23T18:22:43.562Z,8.58
2019-01-23T18:25:37.645Z,9.53
2019-01-23T18:28:26.858Z,10.68
2019-01-23T18:31:23.498Z,8.58
2019-01-23T18:34:27.820Z,9.00
2019-01-23T18:37:32.136Z,12.13
2019-01-23T18:40:48.489Z,8.58
2019-01-23T18:43:54.088Z,8.63
2019-01-23T18:46:51.721Z,9.73
2019-01-23T18:49:58.637Z,12.05
2019-01-23T18:52:51.433Z,7.12
2019-01-23T18:55:43.209Z,8.05
2019-01-23T18:58:36.785Z,9.25
2019-01-23T19:01:30.087Z,8.50
2019-01-23T19:04:23.399Z,8.78
2019-01-23T19:07:16.458Z,9.07
2019-01-23T19:10:10.023Z,10.68
2019-01-23T19:12:59.243Z,8.30
2019-01-23T19:15:53.320Z,11.03
2019-01-23T19:18:46.120Z,9.93
2019-01-23T19:21:39.435Z,9.48
2019-01-23T19:24:32.490Z,12.78
2019-01-23T19:27:26.569Z,7.15
2019-01-23T19:30:19.896Z,8.90
2019-01-23T19:33:13.683Z,7.90
2019-01-23T19:36:05.741Z,7.67
2019-01-23T19:38:58.793Z,7.87
2019-01-23T19:41:51.852Z,7.92
2019-01-23T19:44:45.677Z,10.15
2019-01-23T19:47:38.480Z,9.40
2019-01-23T19:50:32.046Z,9.08
2019-01-23T19:53:25.364Z,9.53
2019-01-23T19:56:18.671Z,9.38
2019-01-23T19:59:11.723Z,7.78
2019-01-23T20:02:05.067Z,9.53
2019-01-23T20:04:58.094Z,11.55
2019-01-23T20:07:47.058Z,8.35
2019-01-23T20:10:36.966Z,9.63
2019-01-23T20:13:25.992Z,9.25
2019-01-23T20:16:19.818Z,8.38
2019-01-23T20:19:12.616Z,10.10
2019-01-23T20:22:06.451Z,8.45
2019-01-23T20:24:59.242Z,8.98
2019-01-23T20:28:04.585Z,9.38
2019-01-23T20:30:58.408Z,9.10
2019-01-23T20:33:52.236Z,10.40
2019-01-23T20:36:45.034Z,7.78
2019-01-23T20:39:37.834Z,8.30
2019-01-23T20:42:30.638Z,7.75
2019-01-23T20:45:19.849Z,8.28
2019-01-23T20:48:12.904Z,8.53
2019-01-23T20:51:05.959Z,8.53
2019-01-23T20:54:03.730Z,8.70
2019-01-23T20:57:00.007Z,8.47
2019-01-23T20:59:56.138Z,9.50
2019-01-23T21:02:49.196Z,7.97
2019-01-23T21:08:55.309Z,7.67
2019-01-23T21:11:57.342Z,7.65
2019-01-23T21:14:50.860Z,7.65
2019-01-23T21:17:45.223Z,7.25
2019-01-23T21:20:41.429Z,9.90
2019-01-23T21:23:37.194Z,8.10
2019-01-23T21:26:30.247Z,8.23
2019-01-23T21:32:58.358Z,7.72
2019-01-23T21:35:58.345Z,8.03
2019-01-23T21:38:52.150Z,8.40
2019-01-23T21:41:47.505Z,7.80
2019-01-23T21:44:41.322Z,8.90
2019-01-23T21:47:37.465Z,6.47
2019-01-23T21:50:33.339Z,11.05
2019-01-23T21:53:26.380Z,6.87
2019-01-23T21:56:20.713Z,7.08
2019-01-23T21:59:14.030Z,7.08
2019-01-23T22:02:03.239Z,9.48
2019-01-23T22:04:56.295Z,6.55
2019-01-23T22:07:49.353Z,10.65
2019-01-23T22:10:42.410Z,7.30
2019-01-23T22:13:35.721Z,8.63
2019-01-23T22:16:28.778Z,9.78
2019-01-23T22:19:21.577Z,8.93
2019-01-23T22:22:14.631Z,7.08
2019-01-23T22:25:08.455Z,7.45
2019-01-23T22:28:01.513Z,8.43
2019-01-23T22:30:55.081Z,7.10
2019-01-23T22:33:48.397Z,7.85
2019-01-23T22:36:42.219Z,7.37
2019-01-23T22:39:35.274Z,10.25
2019-01-23T22:42:22.706Z,8.00
2019-01-23T22:45:16.007Z,7.35
2019-01-23T22:48:09.320Z,6.60
2019-01-23T22:51:04.180Z,6.35
2019-01-23T22:53:57.234Z,6.45
2019-01-23T22:56:50.025Z,8.18
2019-01-23T22:59:43.080Z,7.80
2019-01-23T23:02:35.886Z,8.75
2019-01-23T23:05:36.365Z,5.35
2019-01-23T23:08:29.416Z,7.50
2019-01-23T23:11:22.217Z,7.90
2019-01-23T23:14:15.274Z,7.60
2019-01-23T23:17:04.236Z,6.50
2019-01-23T23:19:57.292Z,10.82
2019-01-23T23:22:46.502Z,6.08
2019-01-23T23:25:39.561Z,7.00
2019-01-23T23:28:32.622Z,6.65
2019-01-23T23:31:25.421Z,7.03
2019-01-23T23:34:18.216Z,6.87
2019-01-23T23:37:11.273Z,6.97
2019-01-23T23:40:04.074Z,6.25
2019-01-23T23:42:56.875Z,8.13
2019-01-23T23:45:49.927Z,7.67
2019-01-23T23:48:43.753Z,8.53
2019-01-23T23:51:32.968Z,7.58
2019-01-23T23:54:25.769Z,7.10
2019-01-23T23:57:19.081Z,9.08
